Terminal Aerodrome Forecast
Issued by NWS

Home | Current Version | Previous Version | Text Only | Print | Product List | Glossary On
Versions: 1 2 3 4 5 6 7 8 9 10 11 12
000
FTUS45 KRIW 272300
TAFWRL
TAF
KWRL 272324Z 2800/2824 VRB04KT P6SM FEW110
     FM280300 18008KT P6SM SKC
     FM281500 15009KT P6SM SKC
     FM281900 32021G31KT P6SM SCT250=

USA.gov is the U.S. government's official web portal to all federal, state and local government web resources and services.